Lindsey, Wisconsin
Current Conditions -  °F | °C
As of 3:10 PM on Saturday 20 Dec 2014 (Local Time) from KMFI Reporting Station
Haze Haze  
Wind Chill: 22°   Ceiling: 1200
Heat Index: 30°   Visibility: 5mi
Dew Point: 25°   Wind: 8mph
Humidity: 82%   Direction: 150°SSE
Pressure: 30.16"   Gusts: NA
Location:  44.6413°N, 90.1945°W
Report Text: KMFI 202110Z AUTO 15007KT 5SM HZ BKN012 OVC025 M01/M04 A3016 RMK AO2 T10111039
Loading
Personal Weather Stations






























Interactive Weather Map New forecast layout! Learn more

10-Day Weather Forecast

Advertisements
Track Severe Weather on mobile